createdAt,value
2023-05-09T00:01:21.041Z,98254.53
2023-05-09T00:03:47.808Z,98251.00
2023-05-09T00:06:15.549Z,98250.03
2023-05-09T00:08:42.356Z,98245.72
2023-05-09T00:11:09.175Z,98241.44
2023-05-09T00:13:35.838Z,98244.13
2023-05-09T00:16:03.194Z,98245.88
2023-05-09T00:18:33.972Z,98250.25
2023-05-09T00:21:02.428Z,98252.88
2023-05-09T00:23:28.941Z,98255.53
2023-05-09T00:25:55.670Z,98255.66
2023-05-09T00:28:22.357Z,98247.03
2023-05-09T00:30:48.957Z,98253.16
2023-05-09T00:33:15.623Z,98257.56
2023-05-09T00:35:42.279Z,98251.44
2023-05-09T00:38:08.998Z,98248.00
2023-05-09T00:40:35.598Z,98244.59
2023-05-09T00:43:02.285Z,98246.41
2023-05-09T00:45:29.079Z,98247.28
2023-05-09T00:47:55.933Z,98245.50
2023-05-09T00:50:22.625Z,98242.97
2023-05-09T00:52:49.403Z,98235.97
2023-05-09T00:55:16.449Z,98244.66
2023-05-09T00:57:43.405Z,98240.22
2023-05-09T01:00:14.271Z,98246.34
2023-05-09T01:02:42.555Z,98249.91
2023-05-09T01:05:10.070Z,98255.97
2023-05-09T01:08:00.308Z,98248.22
2023-05-09T01:11:32.274Z,98251.09
2023-05-09T01:14:08.561Z,98244.19
2023-05-09T01:16:40.976Z,98242.44
2023-05-09T01:19:44.804Z,98249.47
2023-05-09T01:22:12.593Z,98240.78
2023-05-09T01:24:57.849Z,98246.00
2023-05-09T01:27:37.531Z,98252.03
2023-05-09T01:30:04.883Z,98251.19
2023-05-09T01:32:38.388Z,98249.38
2023-05-09T01:35:06.982Z,98245.91
2023-05-09T01:37:36.442Z,98251.13
2023-05-09T01:40:15.477Z,98247.59
2023-05-09T01:42:49.897Z,98247.59
2023-05-09T01:45:17.631Z,98250.25
2023-05-09T01:47:44.852Z,98246.88
2023-05-09T01:50:12.600Z,98257.31
2023-05-09T01:52:40.104Z,98246.00
2023-05-09T01:55:07.497Z,98257.38
2023-05-09T01:57:35.949Z,98249.53
2023-05-09T02:00:03.845Z,98245.16
2023-05-09T02:02:30.959Z,98249.50
2023-05-09T02:04:58.714Z,98246.06
2023-05-09T02:07:28.150Z,98251.28
2023-05-09T02:09:56.605Z,98246.09
2023-05-09T02:12:24.613Z,98249.56
2023-05-09T02:14:51.449Z,98252.19
2023-05-09T02:17:19.322Z,98254.84
2023-05-09T02:19:46.058Z,98258.38
2023-05-09T02:22:13.511Z,98254.84
2023-05-09T02:24:41.032Z,98251.34
2023-05-09T02:27:08.641Z,98260.91
2023-05-09T02:29:44.189Z,98263.50
2023-05-09T02:32:15.825Z,98254.84
2023-05-09T02:34:43.912Z,98258.25
2023-05-09T02:37:11.133Z,98264.34
2023-05-09T02:39:37.723Z,98262.63
2023-05-09T02:42:09.557Z,98260.94
2023-05-09T02:44:36.746Z,98261.78
2023-05-09T02:47:05.500Z,98264.47
2023-05-09T02:49:34.146Z,98264.47
2023-05-09T02:52:00.938Z,98261.84
2023-05-09T02:54:27.873Z,98261.00
2023-05-09T02:56:54.534Z,98268.00
2023-05-09T02:59:21.413Z,98268.88
2023-05-09T03:01:50.663Z,98268.88
2023-05-09T03:04:18.048Z,98270.63
2023-05-09T03:06:45.058Z,98274.13
2023-05-09T03:09:11.643Z,98274.09
2023-05-09T03:11:38.229Z,98284.53
2023-05-09T03:14:05.107Z,98286.25
2023-05-09T03:16:31.829Z,98281.88
2023-05-09T03:18:58.401Z,98282.75
2023-05-09T03:21:25.162Z,98281.84
2023-05-09T03:23:52.005Z,98285.38
2023-05-09T03:26:18.592Z,98288.00
2023-05-09T03:28:49.066Z,98291.44
2023-05-09T03:31:16.069Z,98293.13
2023-05-09T03:33:42.781Z,98298.25
2023-05-09T03:36:09.614Z,98294.69
2023-05-09T03:38:36.200Z,98298.09
2023-05-09T03:41:02.769Z,98300.69
2023-05-09T03:43:29.497Z,98301.59
2023-05-09T03:45:56.142Z,98295.41
2023-05-09T03:48:22.845Z,98298.78
2023-05-09T03:50:51.663Z,98294.47
2023-05-09T03:53:18.384Z,98301.47
2023-05-09T03:55:44.978Z,98298.84
2023-05-09T03:58:12.583Z,98299.72
2023-05-09T04:00:40.370Z,98307.50
2023-05-09T04:03:08.278Z,98312.66
2023-05-09T04:05:37.478Z,98313.44
2023-05-09T04:08:04.662Z,98306.44
2023-05-09T04:10:32.328Z,98315.16
2023-05-09T04:12:59.062Z,98308.97
2023-05-09T04:15:28.671Z,98318.44
2023-05-09T04:17:55.269Z,98314.84
2023-05-09T04:20:21.955Z,98315.63
2023-05-09T04:22:48.551Z,98307.84
2023-05-09T04:25:16.153Z,98313.81
2023-05-09T04:27:43.007Z,98317.09
2023-05-09T04:30:10.490Z,98303.88
2023-05-09T04:32:37.230Z,98309.13
2023-05-09T04:35:04.454Z,98305.47
2023-05-09T04:37:32.691Z,98314.13
2023-05-09T04:39:59.479Z,98312.19
2023-05-09T04:42:26.342Z,98309.19
2023-05-09T04:44:53.414Z,98321.94
2023-05-09T04:47:22.890Z,98309.50
2023-05-09T04:49:49.542Z,98319.44
2023-05-09T04:52:17.387Z,98315.88
2023-05-09T04:54:43.998Z,98311.41
2023-05-09T04:57:17.940Z,98315.47
2023-05-09T04:59:45.597Z,98312.69
2023-05-09T05:02:13.056Z,98301.47
2023-05-09T05:04:39.949Z,98303.88
2023-05-09T05:07:06.775Z,98320.59
2023-05-09T05:09:33.508Z,98309.22
2023-05-09T05:12:02.995Z,98307.22
2023-05-09T05:14:30.375Z,98315.91
2023-05-09T05:16:56.995Z,98311.25
2023-05-09T05:19:23.676Z,98315.81
2023-05-09T05:21:50.308Z,98310.75
2023-05-09T05:24:17.087Z,98306.97
2023-05-09T05:26:43.811Z,98309.56
2023-05-09T05:29:10.787Z,98320.91
2023-05-09T05:31:40.364Z,98313.84
2023-05-09T05:34:06.961Z,98309.41
2023-05-09T05:36:33.684Z,98318.66
2023-05-09T05:39:00.282Z,98319.59
2023-05-09T05:41:27.194Z,98314.78
2023-05-09T05:43:54.460Z,98309.63
2023-05-09T05:46:21.507Z,98318.41
2023-05-09T05:48:48.405Z,98316.63
2023-05-09T05:51:15.068Z,98306.88
2023-05-09T05:53:41.995Z,98304.81
2023-05-09T05:56:08.676Z,98304.81
2023-05-09T05:58:35.669Z,98303.88
2023-05-09T06:01:02.557Z,98304.59
2023-05-09T06:03:29.431Z,98306.06
2023-05-09T06:05:56.655Z,98301.50
2023-05-09T06:08:23.456Z,98293.50
2023-05-09T06:10:50.047Z,98294.03
2023-05-09T06:13:16.661Z,98292.72
2023-05-09T06:15:43.657Z,98289.19
2023-05-09T06:18:10.350Z,98300.22
2023-05-09T06:20:37.061Z,98295.47
2023-05-09T06:23:03.765Z,98293.75
2023-05-09T06:25:30.515Z,98286.22
2023-05-09T06:27:57.086Z,98296.16
2023-05-09T06:30:26.698Z,98291.69
2023-05-09T06:32:54.765Z,98291.47
2023-05-09T06:35:21.770Z,98291.56
2023-05-09T06:37:49.156Z,98282.25
2023-05-09T06:40:16.741Z,98276.31
2023-05-09T06:42:43.367Z,98278.69
2023-05-09T06:45:10.135Z,98267.38
2023-05-09T06:47:36.704Z,98261.94
2023-05-09T06:50:03.412Z,98265.22
2023-05-09T06:52:30.076Z,98262.09
2023-05-09T06:54:56.556Z,98268.50
2023-05-09T06:57:23.449Z,98262.97
2023-05-09T06:59:50.756Z,98262.19
2023-05-09T07:02:17.232Z,98261.25
2023-05-09T07:04:43.736Z,98256.50
2023-05-09T07:07:10.597Z,98258.63
2023-05-09T07:09:37.180Z,98244.97
2023-05-09T07:12:03.871Z,98257.44
2023-05-09T07:14:30.331Z,98250.31
2023-05-09T07:17:09.959Z,98241.97
2023-05-09T07:19:43.232Z,98247.75
2023-05-09T07:22:09.737Z,98248.25
2023-05-09T07:24:36.265Z,98248.88
2023-05-09T07:27:03.950Z,98243.22
2023-05-09T07:29:30.525Z,98237.47
2023-05-09T07:31:57.031Z,98237.41
2023-05-09T07:34:25.413Z,98234.00
2023-05-09T07:36:52.062Z,98226.75
2023-05-09T07:39:18.546Z,98233.28
2023-05-09T07:41:46.406Z,98240.72
2023-05-09T07:44:14.240Z,98239.25
2023-05-09T07:46:42.183Z,98237.16
2023-05-09T07:49:08.870Z,98228.03
2023-05-09T07:51:35.709Z,98228.66
2023-05-09T07:54:02.212Z,98229.22
2023-05-09T07:56:28.774Z,98237.78
2023-05-09T07:58:55.927Z,98222.91
2023-05-09T08:01:22.514Z,98220.22
2023-05-09T08:03:49.147Z,98214.44
2023-05-09T08:06:15.745Z,98214.94
2023-05-09T08:08:42.233Z,98218.97
2023-05-09T08:11:08.810Z,98222.28
2023-05-09T08:13:36.070Z,98219.38
2023-05-09T08:16:02.990Z,98218.25
2023-05-09T08:18:29.607Z,98213.81
2023-05-09T08:20:56.146Z,98222.41
2023-05-09T08:23:23.300Z,98212.25
2023-05-09T08:25:52.900Z,98211.25
2023-05-09T08:28:19.417Z,98205.56
2023-05-09T08:30:45.942Z,98212.75
2023-05-09T08:33:12.530Z,98207.97
2023-05-09T08:35:39.066Z,98198.19
2023-05-09T08:38:05.792Z,98200.47
2023-05-09T08:40:35.514Z,98209.22
2023-05-09T08:43:03.270Z,98206.66
2023-05-09T08:45:30.620Z,98197.75
2023-05-09T08:47:57.183Z,98199.00
2023-05-09T08:50:23.871Z,98196.97
2023-05-09T08:52:51.548Z,98191.94
2023-05-09T08:55:18.119Z,98192.25
2023-05-09T08:57:44.768Z,98196.31
2023-05-09T09:00:13.527Z,98192.59
2023-05-09T09:02:41.898Z,98187.66
2023-05-09T09:05:19.616Z,98187.00
2023-05-09T09:07:55.300Z,98181.41
2023-05-09T09:10:25.743Z,98184.66
2023-05-09T09:12:53.301Z,98181.81
2023-05-09T09:15:20.191Z,98185.94
2023-05-09T09:17:48.565Z,98183.09
2023-05-09T09:20:16.588Z,98174.81
2023-05-09T09:22:44.024Z,98168.28
2023-05-09T09:25:11.191Z,98176.50
2023-05-09T09:27:37.968Z,98162.59
2023-05-09T09:30:08.277Z,98171.38
2023-05-09T09:32:35.548Z,98174.50
2023-05-09T09:35:08.763Z,98174.44
2023-05-09T09:37:35.957Z,98172.66
2023-05-09T09:40:03.019Z,98177.59
2023-05-09T09:42:46.380Z,98177.94
2023-05-09T09:45:14.231Z,98171.34
2023-05-09T09:47:42.710Z,98174.19
2023-05-09T09:50:11.080Z,98166.75
2023-05-09T09:52:41.706Z,98175.59
2023-05-09T09:55:08.833Z,98163.97
2023-05-09T09:57:39.848Z,98166.75
2023-05-09T10:00:06.711Z,98165.63
2023-05-09T10:02:33.496Z,98155.69
2023-05-09T10:05:07.012Z,98158.81
2023-05-09T10:07:34.365Z,98157.69
2023-05-09T10:10:05.853Z,98160.16
2023-05-09T10:12:34.608Z,98156.56
2023-05-09T10:15:03.654Z,98151.13
2023-05-09T10:17:32.684Z,98153.59
2023-05-09T10:20:02.457Z,98152.53
2023-05-09T10:22:30.046Z,98140.84
2023-05-09T10:25:07.492Z,98131.53
2023-05-09T10:27:38.400Z,98135.84
2023-05-09T10:30:05.038Z,98144.28
2023-05-09T10:32:41.830Z,98140.75
2023-05-09T10:35:10.585Z,98135.38
2023-05-09T10:37:37.470Z,98138.63
2023-05-09T10:40:05.195Z,98135.22
2023-05-09T10:42:31.969Z,98132.38
2023-05-09T10:44:58.524Z,98131.09
2023-05-09T10:47:29.034Z,98140.22
2023-05-09T10:49:56.176Z,98138.09
2023-05-09T10:52:22.954Z,98129.91
2023-05-09T10:55:02.574Z,98133.41
2023-05-09T10:57:30.428Z,98131.50
2023-05-09T10:59:57.649Z,98129.50
2023-05-09T11:02:29.568Z,98129.91
2023-05-09T11:05:22.428Z,98125.06
2023-05-09T11:08:08.833Z,98141.16
2023-05-09T11:10:42.347Z,98134.19
2023-05-09T11:13:09.325Z,98136.59
2023-05-09T11:15:36.613Z,98136.44
2023-05-09T11:18:12.340Z,98127.00
2023-05-09T11:20:46.026Z,98133.50
2023-05-09T11:23:14.494Z,98129.53
2023-05-09T11:25:42.221Z,98129.84
2023-05-09T11:28:08.929Z,98127.56
2023-05-09T11:30:40.686Z,98134.56
2023-05-09T11:33:21.437Z,98135.53
2023-05-09T11:35:48.340Z,98131.16
2023-05-09T11:38:20.766Z,98140.59
2023-05-09T11:40:47.483Z,98143.91
2023-05-09T11:43:14.285Z,98137.69
2023-05-09T11:45:41.378Z,98134.75
2023-05-09T11:48:11.195Z,98126.69
2023-05-09T11:50:38.105Z,98129.28
2023-05-09T11:53:04.609Z,98126.81
2023-05-09T11:55:32.764Z,98133.09
2023-05-09T11:57:59.420Z,98134.44
2023-05-09T12:00:26.546Z,98133.91
2023-05-09T12:02:53.606Z,98123.44
2023-05-09T12:05:21.855Z,98132.91
2023-05-09T12:07:48.923Z,98129.19
2023-05-09T12:10:17.079Z,98125.75
2023-05-09T12:12:44.859Z,98126.13
2023-05-09T12:15:11.630Z,98125.47
2023-05-09T12:17:38.400Z,98127.84
2023-05-09T12:20:05.890Z,98125.34
2023-05-09T12:22:32.728Z,98111.88
2023-05-09T12:25:07.294Z,98102.50
2023-05-09T12:27:35.835Z,98111.19
2023-05-09T12:30:08.725Z,98107.31
2023-05-09T12:32:36.980Z,98099.97
2023-05-09T12:35:03.996Z,98101.44
2023-05-09T12:37:34.376Z,98089.56
2023-05-09T12:40:06.657Z,98092.50
2023-05-09T12:42:35.329Z,98088.31
2023-05-09T12:45:03.329Z,98089.72
2023-05-09T12:47:31.814Z,98092.72
2023-05-09T12:50:02.843Z,98083.59
2023-05-09T12:52:46.901Z,98091.88
2023-05-09T12:55:25.547Z,98080.19
2023-05-09T12:58:01.698Z,98083.03
2023-05-09T13:00:28.966Z,98087.50
2023-05-09T13:02:55.895Z,98082.34
2023-05-09T13:05:26.474Z,98087.41
2023-05-09T13:07:57.124Z,98077.41
2023-05-09T13:10:26.192Z,98072.75
2023-05-09T13:12:53.923Z,98069.72
2023-05-09T13:15:26.912Z,98077.31
2023-05-09T13:17:54.417Z,98078.00
2023-05-09T13:20:21.313Z,98083.41
2023-05-09T13:22:47.957Z,98077.41
2023-05-09T13:25:16.102Z,98060.22
2023-05-09T13:27:42.768Z,98066.84
2023-05-09T13:30:09.676Z,98061.44
2023-05-09T13:32:39.027Z,98071.03
2023-05-09T13:35:08.039Z,98066.69
2023-05-09T13:37:35.421Z,98063.94
2023-05-09T13:40:02.812Z,98069.34
2023-05-09T13:42:29.449Z,98053.31
2023-05-09T13:44:58.161Z,98046.75
2023-05-09T13:47:24.980Z,98039.50
2023-05-09T13:49:52.388Z,98035.06
2023-05-09T13:52:19.674Z,98043.69
2023-05-09T13:54:47.695Z,98037.56
2023-05-09T13:57:14.771Z,98046.50
2023-05-09T13:59:42.064Z,98056.59
2023-05-09T14:02:10.954Z,98047.72
2023-05-09T14:04:37.748Z,98044.78
2023-05-09T14:07:05.031Z,98034.28
2023-05-09T14:09:31.911Z,98044.78
2023-05-09T14:11:58.554Z,98038.59
2023-05-09T14:14:25.665Z,98041.06
2023-05-09T14:16:52.838Z,98037.34
2023-05-09T14:19:19.565Z,98030.06
2023-05-09T14:21:48.972Z,98028.97
2023-05-09T14:24:16.527Z,98027.66
2023-05-09T14:26:43.880Z,98033.00
2023-05-09T14:29:11.255Z,98035.88
2023-05-09T14:31:38.485Z,98026.00
2023-05-09T14:34:06.214Z,98031.06
2023-05-09T14:36:33.069Z,98019.59
2023-05-09T14:38:59.732Z,98016.84
2023-05-09T14:41:26.909Z,98025.09
2023-05-09T14:43:53.612Z,98013.34
2023-05-09T14:46:20.514Z,98024.91
2023-05-09T14:48:47.190Z,98018.59
2023-05-09T14:51:14.421Z,98017.00
2023-05-09T14:53:41.975Z,98025.13
2023-05-09T14:56:09.533Z,98022.19
2023-05-09T14:58:36.266Z,98027.19
2023-05-09T15:01:04.254Z,98017.25
2023-05-09T15:03:31.136Z,98016.03
2023-05-09T15:05:58.746Z,98018.97
2023-05-09T15:08:26.009Z,98017.66
2023-05-09T15:10:55.329Z,98022.00
2023-05-09T15:13:22.139Z,98021.97
2023-05-09T15:15:52.003Z,98024.59
2023-05-09T15:18:20.144Z,98022.59
2023-05-09T15:20:46.786Z,98021.44
2023-05-09T15:23:13.580Z,98034.13
2023-05-09T15:25:42.653Z,98036.31
2023-05-09T15:28:09.256Z,98036.03
2023-05-09T15:30:38.301Z,98038.66
2023-05-09T15:33:05.343Z,98037.53
2023-05-09T15:35:32.053Z,98029.56
2023-05-09T15:37:58.907Z,98038.88
2023-05-09T15:40:25.605Z,98038.72
2023-05-09T15:42:52.468Z,98033.59
2023-05-09T15:45:19.280Z,98035.81
2023-05-09T15:47:45.952Z,98041.19
2023-05-09T15:50:12.822Z,98032.59
2023-05-09T15:52:39.513Z,98025.03
2023-05-09T15:55:07.117Z,98022.59
2023-05-09T15:57:34.038Z,98020.31
2023-05-09T16:00:00.773Z,98012.59
2023-05-09T16:02:28.586Z,98019.59
2023-05-09T16:04:55.382Z,98012.03
2023-05-09T16:07:22.437Z,98018.88
2023-05-09T16:09:49.233Z,98018.97
2023-05-09T16:12:15.940Z,98017.31
2023-05-09T16:14:42.616Z,98018.72
2023-05-09T16:17:09.208Z,98016.25
2023-05-09T16:19:36.545Z,98014.09
2023-05-09T16:22:03.309Z,98015.75
2023-05-09T16:24:31.715Z,98018.75
2023-05-09T16:26:58.514Z,98016.13
2023-05-09T16:29:25.297Z,98017.22
2023-05-09T16:31:52.104Z,98018.78
2023-05-09T16:34:18.794Z,98013.69
2023-05-09T16:36:46.605Z,98011.75
2023-05-09T16:39:13.337Z,98014.06
2023-05-09T16:41:40.014Z,98019.75
2023-05-09T16:44:06.654Z,98009.25
2023-05-09T16:46:33.427Z,98021.06
2023-05-09T16:49:00.140Z,98019.81
2023-05-09T16:51:26.927Z,98022.00
2023-05-09T16:53:53.595Z,98025.09
2023-05-09T16:56:20.168Z,98023.88
2023-05-09T16:58:47.079Z,98030.28
2023-05-09T17:01:13.655Z,98039.25
2023-05-09T17:03:40.337Z,98043.06
2023-05-09T17:06:07.313Z,98028.53
2023-05-09T17:08:34.323Z,98037.31
2023-05-09T17:11:01.052Z,98037.94
2023-05-09T17:13:28.251Z,98040.00
2023-05-09T17:15:55.200Z,98051.19
2023-05-09T17:18:33.214Z,98047.56
2023-05-09T17:21:04.160Z,98049.28
2023-05-09T17:23:30.744Z,98051.03
2023-05-09T17:25:57.528Z,98036.00
2023-05-09T17:28:24.262Z,98042.16
2023-05-09T17:30:50.791Z,98036.13
2023-05-09T17:33:17.462Z,98048.22
2023-05-09T17:35:44.073Z,98037.44
2023-05-09T17:38:10.616Z,98055.31
2023-05-09T17:40:38.180Z,98052.03
2023-05-09T17:43:04.662Z,98057.22
2023-05-09T17:45:31.222Z,98063.25
2023-05-09T17:47:57.772Z,98064.44
2023-05-09T17:50:24.305Z,98062.72
2023-05-09T17:52:51.019Z,98059.16
2023-05-09T17:55:17.729Z,98064.56
2023-05-09T17:57:44.594Z,98070.22
2023-05-09T18:00:11.382Z,98073.63
2023-05-09T18:02:38.012Z,98072.56
2023-05-09T18:05:05.810Z,98076.84
2023-05-09T18:07:33.862Z,98073.06
2023-05-09T18:10:00.638Z,98070.19
2023-05-09T18:12:29.061Z,98077.63
2023-05-09T18:14:55.665Z,98079.44
2023-05-09T18:17:22.259Z,98091.56
2023-05-09T18:19:48.833Z,98088.59
2023-05-09T18:22:15.802Z,98094.91
2023-05-09T18:24:42.271Z,98097.56
2023-05-09T18:27:08.831Z,98100.97
2023-05-09T18:29:35.389Z,98092.16
2023-05-09T18:32:02.667Z,98099.91
2023-05-09T18:34:29.237Z,98102.44
2023-05-09T18:36:55.976Z,98106.41
2023-05-09T18:39:23.753Z,98108.25
2023-05-09T18:41:50.434Z,98104.47
2023-05-09T18:44:16.955Z,98108.38
2023-05-09T18:46:43.475Z,98111.91
2023-05-09T18:49:11.230Z,98097.72
2023-05-09T18:51:37.879Z,98105.44
2023-05-09T18:54:04.413Z,98102.13
2023-05-09T18:56:30.993Z,98113.78
2023-05-09T18:58:57.448Z,98113.88
2023-05-09T19:01:26.372Z,98110.13
2023-05-09T19:03:54.428Z,98107.66
2023-05-09T19:06:21.483Z,98113.91
2023-05-09T19:08:48.911Z,98119.69
2023-05-09T19:11:16.166Z,98121.06
2023-05-09T19:13:48.717Z,98117.94
2023-05-09T19:16:16.306Z,98114.34
2023-05-09T19:18:42.884Z,98116.09
2023-05-09T19:21:09.512Z,98112.56
2023-05-09T19:23:36.000Z,98114.25
2023-05-09T19:26:03.274Z,98114.94
2023-05-09T19:28:29.751Z,98123.69
2023-05-09T19:30:57.447Z,98118.59
2023-05-09T19:33:25.097Z,98123.69
2023-05-09T19:35:51.829Z,98123.00
2023-05-09T19:38:18.369Z,98121.28
2023-05-09T19:40:44.952Z,98125.50
2023-05-09T19:43:11.436Z,98123.78
2023-05-09T19:45:37.904Z,98122.94
2023-05-09T19:48:04.498Z,98128.28
2023-05-09T19:50:31.201Z,98128.97
2023-05-09T19:52:58.057Z,98126.31
2023-05-09T19:55:24.512Z,98128.41
2023-05-09T19:57:51.179Z,98125.00
2023-05-09T20:00:18.266Z,98119.88
2023-05-09T20:02:45.327Z,98118.19
2023-05-09T20:05:11.888Z,98124.31
2023-05-09T20:07:38.452Z,98127.97
2023-05-09T20:10:05.157Z,98128.91
2023-05-09T20:12:32.077Z,98122.44
2023-05-09T20:14:58.520Z,98114.63
2023-05-09T20:17:28.884Z,98115.53
2023-05-09T20:19:55.352Z,98110.94
2023-05-09T20:22:21.967Z,98109.97
2023-05-09T20:24:48.505Z,98108.50
2023-05-09T20:27:14.979Z,98112.78
2023-05-09T20:29:41.519Z,98106.72
2023-05-09T20:32:08.116Z,98110.69
2023-05-09T20:34:34.714Z,98114.09
2023-05-09T20:37:01.568Z,98101.25
2023-05-09T20:39:28.133Z,98110.25
2023-05-09T20:41:55.918Z,98108.59
2023-05-09T20:44:22.493Z,98108.69
2023-05-09T20:46:49.351Z,98116.66
2023-05-09T20:49:15.967Z,98103.53
2023-05-09T20:51:42.490Z,98106.16
2023-05-09T20:54:09.143Z,98100.91
2023-05-09T20:56:35.786Z,98101.03
2023-05-09T20:59:03.976Z,98101.09
2023-05-09T21:01:32.606Z,98102.75
2023-05-09T21:03:59.416Z,98100.19
2023-05-09T21:06:25.910Z,98101.19
2023-05-09T21:08:52.425Z,98104.91
2023-05-09T21:11:18.890Z,98100.47
2023-05-09T21:13:45.362Z,98101.91
2023-05-09T21:16:11.923Z,98109.38
2023-05-09T21:18:38.472Z,98100.78
2023-05-09T21:21:08.463Z,98101.38
2023-05-09T21:23:34.991Z,98096.25
2023-05-09T21:26:02.548Z,98095.44
2023-05-09T21:28:29.211Z,98096.50
2023-05-09T21:30:55.954Z,98092.41
2023-05-09T21:33:22.560Z,98102.09
2023-05-09T21:35:49.088Z,98105.78
2023-05-09T21:38:15.592Z,98104.84
2023-05-09T21:40:42.073Z,98106.44
2023-05-09T21:43:08.626Z,98102.28
2023-05-09T21:45:35.076Z,98101.50
2023-05-09T21:48:01.642Z,98108.44
2023-05-09T21:50:28.322Z,98104.19
2023-05-09T21:52:56.354Z,98102.28
2023-05-09T21:55:23.166Z,98093.13
2023-05-09T21:57:49.865Z,98100.19
2023-05-09T22:00:17.392Z,98099.16
2023-05-09T22:02:44.769Z,98096.78
2023-05-09T22:05:14.039Z,98095.25
2023-05-09T22:07:40.615Z,98088.25
2023-05-09T22:10:07.871Z,98089.03
2023-05-09T22:12:34.453Z,98095.94
2023-05-09T22:15:01.010Z,98091.53
2023-05-09T22:17:27.611Z,98091.84
2023-05-09T22:19:54.268Z,98087.63
2023-05-09T22:22:21.505Z,98087.63
2023-05-09T22:24:49.750Z,98083.41
2023-05-09T22:27:16.540Z,98082.56
2023-05-09T22:29:43.064Z,98082.78
2023-05-09T22:32:09.613Z,98078.44
2023-05-09T22:34:36.240Z,98079.31
2023-05-09T22:37:03.079Z,98087.31
2023-05-09T22:39:30.923Z,98079.31
2023-05-09T22:41:57.673Z,98080.63
2023-05-09T22:44:24.338Z,98082.75
2023-05-09T22:46:50.902Z,98085.47
2023-05-09T22:49:17.743Z,98074.94
2023-05-09T22:51:44.252Z,98073.28
2023-05-09T22:54:10.751Z,98071.63
2023-05-09T22:56:37.276Z,98073.38
2023-05-09T22:59:06.368Z,98077.88
2023-05-09T23:01:33.379Z,98072.69
2023-05-09T23:03:59.907Z,98072.78
2023-05-09T23:06:26.345Z,98067.66
2023-05-09T23:08:52.984Z,98065.03
2023-05-09T23:11:20.966Z,98057.13
2023-05-09T23:13:47.580Z,98061.50
2023-05-09T23:16:16.258Z,98057.06
2023-05-09T23:18:42.955Z,98059.84
2023-05-09T23:21:10.018Z,98051.28
2023-05-09T23:23:36.785Z,98050.50
2023-05-09T23:26:03.374Z,98061.03
2023-05-09T23:28:29.982Z,98055.78
2023-05-09T23:30:56.612Z,98048.97
2023-05-09T23:33:23.277Z,98057.78
2023-05-09T23:35:50.160Z,98053.63
2023-05-09T23:38:17.202Z,98050.16
2023-05-09T23:40:46.149Z,98044.06
2023-05-09T23:43:13.652Z,98042.44
2023-05-09T23:45:40.492Z,98044.16
2023-05-09T23:48:07.739Z,98033.69
2023-05-09T23:50:34.481Z,98030.25
2023-05-09T23:53:04.924Z,98027.75
2023-05-09T23:55:31.708Z,98028.78
2023-05-09T23:57:58.419Z,98022.78
